sensor_id;sensor_type;location;lat;lon;timestamp;temperature;humidity
6118;DHT22;3089;48.202;11.510;2022-10-31T00:01:41;12.10;99.90
6118;DHT22;3089;48.202;11.510;2022-10-31T00:04:09;12.00;99.90
6118;DHT22;3089;48.202;11.510;2022-10-31T00:06:37;12.10;99.90
6118;DHT22;3089;48.202;11.510;2022-10-31T00:09:05;12.00;99.90
6118;DHT22;3089;48.202;11.510;2022-10-31T00:11:32;11.90;99.90
6118;DHT22;3089;48.202;11.510;2022-10-31T00:14:00;12.00;99.90
6118;DHT22;3089;48.202;11.510;2022-10-31T00:16:29;12.00;99.90
6118;DHT22;3089;48.202;11.510;2022-10-31T00:19:00;12.00;99.90
6118;DHT22;3089;48.202;11.510;2022-10-31T00:21:28;11.90;99.90
6118;DHT22;3089;48.202;11.510;2022-10-31T00:23:57;11.90;99.90
6118;DHT22;3089;48.202;11.510;2022-10-31T00:26:27;11.80;99.90
6118;DHT22;3089;48.202;11.510;2022-10-31T00:28:55;11.80;99.90
6118;DHT22;3089;48.202;11.510;2022-10-31T00:31:23;11.80;99.90
6118;DHT22;3089;48.202;11.510;2022-10-31T00:33:50;11.80;99.90
6118;DHT22;3089;48.202;11.510;2022-10-31T00:36:20;11.80;99.90
6118;DHT22;3089;48.202;11.510;2022-10-31T00:38:48;11.70;99.90
6118;DHT22;3089;48.202;11.510;2022-10-31T00:41:17;11.70;99.90
6118;DHT22;3089;48.202;11.510;2022-10-31T00:43:45;11.70;99.90
6118;DHT22;3089;48.202;11.510;2022-10-31T00:46:13;11.70;99.90
6118;DHT22;3089;48.202;11.510;2022-10-31T00:48:41;11.70;99.90
6118;DHT22;3089;48.202;11.510;2022-10-31T00:51:20;11.60;99.90
6118;DHT22;3089;48.202;11.510;2022-10-31T00:53:48;11.70;99.90
6118;DHT22;3089;48.202;11.510;2022-10-31T00:56:15;11.70;99.90
6118;DHT22;3089;48.202;11.510;2022-10-31T00:58:45;11.60;99.90
6118;DHT22;3089;48.202;11.510;2022-10-31T01:01:13;11.60;99.90
6118;DHT22;3089;48.202;11.510;2022-10-31T01:03:41;11.50;99.90
6118;DHT22;3089;48.202;11.510;2022-10-31T01:06:11;11.50;99.90
6118;DHT22;3089;48.202;11.510;2022-10-31T01:08:40;11.60;99.90
6118;DHT22;3089;48.202;11.510;2022-10-31T01:11:11;11.60;99.90
6118;DHT22;3089;48.202;11.510;2022-10-31T01:13:39;11.50;99.90
6118;DHT22;3089;48.202;11.510;2022-10-31T01:16:10;11.50;99.90
6118;DHT22;3089;48.202;11.510;2022-10-31T01:18:38;11.60;99.90
6118;DHT22;3089;48.202;11.510;2022-10-31T01:21:08;11.50;99.90
6118;DHT22;3089;48.202;11.510;2022-10-31T01:23:36;11.50;99.90
6118;DHT22;3089;48.202;11.510;2022-10-31T01:26:08;11.50;99.90
6118;DHT22;3089;48.202;11.510;2022-10-31T01:28:39;11.50;99.90
6118;DHT22;3089;48.202;11.510;2022-10-31T01:31:10;11.40;99.90
6118;DHT22;3089;48.202;11.510;2022-10-31T01:33:38;11.50;99.90
6118;DHT22;3089;48.202;11.510;2022-10-31T01:36:14;11.50;99.90
6118;DHT22;3089;48.202;11.510;2022-10-31T01:38:43;11.50;99.90
6118;DHT22;3089;48.202;11.510;2022-10-31T01:41:14;11.40;99.90
6118;DHT22;3089;48.202;11.510;2022-10-31T01:43:52;11.30;99.90
6118;DHT22;3089;48.202;11.510;2022-10-31T01:46:23;11.30;99.90
6118;DHT22;3089;48.202;11.510;2022-10-31T01:48:53;11.30;99.90
6118;DHT22;3089;48.202;11.510;2022-10-31T01:51:25;11.30;99.90
6118;DHT22;3089;48.202;11.510;2022-10-31T01:53:56;11.30;99.90
6118;DHT22;3089;48.202;11.510;2022-10-31T01:56:26;11.30;99.90
6118;DHT22;3089;48.202;11.510;2022-10-31T01:58:56;11.30;99.90
6118;DHT22;3089;48.202;11.510;2022-10-31T02:01:25;11.20;99.90
6118;DHT22;3089;48.202;11.510;2022-10-31T02:03:55;11.30;99.90
6118;DHT22;3089;48.202;11.510;2022-10-31T02:06:29;11.30;99.90
6118;DHT22;3089;48.202;11.510;2022-10-31T02:09:00;11.30;99.90
6118;DHT22;3089;48.202;11.510;2022-10-31T02:11:31;11.20;99.90
6118;DHT22;3089;48.202;11.510;2022-10-31T02:14:02;11.20;99.90
6118;DHT22;3089;48.202;11.510;2022-10-31T02:16:30;11.10;99.90
6118;DHT22;3089;48.202;11.510;2022-10-31T02:18:57;11.10;99.90
6118;DHT22;3089;48.202;11.510;2022-10-31T02:21:32;11.00;99.90
6118;DHT22;3089;48.202;11.510;2022-10-31T02:24:27;11.10;99.90
6118;DHT22;3089;48.202;11.510;2022-10-31T02:27:32;11.10;99.90
6118;DHT22;3089;48.202;11.510;2022-10-31T02:30:10;11.00;99.90
6118;DHT22;3089;48.202;11.510;2022-10-31T02:32:49;11.00;99.90
6118;DHT22;3089;48.202;11.510;2022-10-31T02:35:28;11.00;99.90
6118;DHT22;3089;48.202;11.510;2022-10-31T02:38:04;10.90;99.90
6118;DHT22;3089;48.202;11.510;2022-10-31T02:40:37;10.90;99.90
6118;DHT22;3089;48.202;11.510;2022-10-31T02:43:09;11.00;99.90
6118;DHT22;3089;48.202;11.510;2022-10-31T02:45:49;11.00;99.90
6118;DHT22;3089;48.202;11.510;2022-10-31T02:48:22;11.00;99.90
6118;DHT22;3089;48.202;11.510;2022-10-31T02:50:55;11.00;99.90
6118;DHT22;3089;48.202;11.510;2022-10-31T02:53:23;11.00;99.90
6118;DHT22;3089;48.202;11.510;2022-10-31T02:55:57;10.90;99.90
6118;DHT22;3089;48.202;11.510;2022-10-31T02:58:28;10.90;99.90
6118;DHT22;3089;48.202;11.510;2022-10-31T03:01:08;10.90;99.90
6118;DHT22;3089;48.202;11.510;2022-10-31T03:03:48;10.90;99.90
6118;DHT22;3089;48.202;11.510;2022-10-31T03:06:22;10.80;99.90
6118;DHT22;3089;48.202;11.510;2022-10-31T03:08:57;10.80;99.90
6118;DHT22;3089;48.202;11.510;2022-10-31T03:11:31;10.80;99.90
6118;DHT22;3089;48.202;11.510;2022-10-31T03:14:05;10.80;99.90
6118;DHT22;3089;48.202;11.510;2022-10-31T03:16:40;10.80;99.90
6118;DHT22;3089;48.202;11.510;2022-10-31T03:19:16;10.70;99.90
6118;DHT22;3089;48.202;11.510;2022-10-31T03:21:47;10.80;99.90
6118;DHT22;3089;48.202;11.510;2022-10-31T03:24:16;10.70;99.90
6118;DHT22;3089;48.202;11.510;2022-10-31T03:26:47;10.70;99.90
6118;DHT22;3089;48.202;11.510;2022-10-31T03:29:16;10.70;99.90
6118;DHT22;3089;48.202;11.510;2022-10-31T03:31:50;10.70;99.90
6118;DHT22;3089;48.202;11.510;2022-10-31T03:34:20;10.70;99.90
6118;DHT22;3089;48.202;11.510;2022-10-31T03:36:52;10.60;99.90
6118;DHT22;3089;48.202;11.510;2022-10-31T03:39:22;10.60;99.90
6118;DHT22;3089;48.202;11.510;2022-10-31T03:41:54;10.60;99.90
6118;DHT22;3089;48.202;11.510;2022-10-31T03:44:24;10.60;99.90
6118;DHT22;3089;48.202;11.510;2022-10-31T03:46:54;10.50;99.90
6118;DHT22;3089;48.202;11.510;2022-10-31T03:49:23;10.60;99.90
6118;DHT22;3089;48.202;11.510;2022-10-31T03:51:55;10.60;99.90
6118;DHT22;3089;48.202;11.510;2022-10-31T03:54:29;10.50;99.90
6118;DHT22;3089;48.202;11.510;2022-10-31T03:57:03;10.60;99.90
6118;DHT22;3089;48.202;11.510;2022-10-31T03:59:35;10.60;99.90
6118;DHT22;3089;48.202;11.510;2022-10-31T04:02:06;10.60;99.90
6118;DHT22;3089;48.202;11.510;2022-10-31T04:04:37;10.60;99.90
6118;DHT22;3089;48.202;11.510;2022-10-31T04:07:06;10.60;99.90
6118;DHT22;3089;48.202;11.510;2022-10-31T04:09:38;10.50;99.90
6118;DHT22;3089;48.202;11.510;2022-10-31T04:12:09;10.50;99.90
6118;DHT22;3089;48.202;11.510;2022-10-31T04:14:43;10.40;99.90
6118;DHT22;3089;48.202;11.510;2022-10-31T04:17:15;10.40;99.90
6118;DHT22;3089;48.202;11.510;2022-10-31T04:19:44;10.40;99.90
6118;DHT22;3089;48.202;11.510;2022-10-31T04:22:12;10.40;99.90
6118;DHT22;3089;48.202;11.510;2022-10-31T04:24:40;10.30;99.90
6118;DHT22;3089;48.202;11.510;2022-10-31T04:27:08;10.30;99.90
6118;DHT22;3089;48.202;11.510;2022-10-31T04:29:36;10.40;99.90
6118;DHT22;3089;48.202;11.510;2022-10-31T04:32:04;10.30;99.90
6118;DHT22;3089;48.202;11.510;2022-10-31T04:34:32;10.40;99.90
6118;DHT22;3089;48.202;11.510;2022-10-31T04:37:01;10.30;99.90
6118;DHT22;3089;48.202;11.510;2022-10-31T04:39:29;10.30;99.90
6118;DHT22;3089;48.202;11.510;2022-10-31T04:41:57;10.30;99.90
6118;DHT22;3089;48.202;11.510;2022-10-31T04:44:25;10.20;99.90
6118;DHT22;3089;48.202;11.510;2022-10-31T04:46:53;10.30;99.90
6118;DHT22;3089;48.202;11.510;2022-10-31T04:49:20;10.30;99.90
6118;DHT22;3089;48.202;11.510;2022-10-31T04:51:48;10.20;99.90
6118;DHT22;3089;48.202;11.510;2022-10-31T04:54:17;10.20;99.90
6118;DHT22;3089;48.202;11.510;2022-10-31T04:56:45;10.20;99.90
6118;DHT22;3089;48.202;11.510;2022-10-31T04:59:13;10.20;99.90
6118;DHT22;3089;48.202;11.510;2022-10-31T05:01:40;10.20;99.90
6118;DHT22;3089;48.202;11.510;2022-10-31T05:04:09;10.10;99.90
6118;DHT22;3089;48.202;11.510;2022-10-31T05:06:37;10.10;99.90
6118;DHT22;3089;48.202;11.510;2022-10-31T05:09:05;10.10;99.90
6118;DHT22;3089;48.202;11.510;2022-10-31T05:11:34;10.10;99.90
6118;DHT22;3089;48.202;11.510;2022-10-31T05:14:02;10.10;99.90
6118;DHT22;3089;48.202;11.510;2022-10-31T05:16:30;10.10;99.90
6118;DHT22;3089;48.202;11.510;2022-10-31T05:18:58;10.10;99.90
6118;DHT22;3089;48.202;11.510;2022-10-31T05:21:26;10.00;99.90
6118;DHT22;3089;48.202;11.510;2022-10-31T05:23:53;10.00;99.90
6118;DHT22;3089;48.202;11.510;2022-10-31T05:26:21;10.00;99.90
6118;DHT22;3089;48.202;11.510;2022-10-31T05:28:50;10.00;99.90
6118;DHT22;3089;48.202;11.510;2022-10-31T05:31:18;10.00;99.90
6118;DHT22;3089;48.202;11.510;2022-10-31T05:33:46;10.00;99.90
6118;DHT22;3089;48.202;11.510;2022-10-31T05:36:13;10.00;99.90
6118;DHT22;3089;48.202;11.510;2022-10-31T05:38:41;10.00;99.90
6118;DHT22;3089;48.202;11.510;2022-10-31T05:41:09;10.00;99.90
6118;DHT22;3089;48.202;11.510;2022-10-31T05:43:37;9.90;99.90
6118;DHT22;3089;48.202;11.510;2022-10-31T05:46:06;10.00;99.90
6118;DHT22;3089;48.202;11.510;2022-10-31T05:48:34;9.90;99.90
6118;DHT22;3089;48.202;11.510;2022-10-31T05:51:01;9.90;99.90
6118;DHT22;3089;48.202;11.510;2022-10-31T05:53:29;9.80;99.90
6118;DHT22;3089;48.202;11.510;2022-10-31T05:55:57;9.80;99.90
6118;DHT22;3089;48.202;11.510;2022-10-31T05:58:25;9.80;99.90
6118;DHT22;3089;48.202;11.510;2022-10-31T06:00:53;9.70;99.90
6118;DHT22;3089;48.202;11.510;2022-10-31T06:03:22;9.80;99.90
6118;DHT22;3089;48.202;11.510;2022-10-31T06:05:49;9.80;99.90
6118;DHT22;3089;48.202;11.510;2022-10-31T06:08:21;9.80;99.90
6118;DHT22;3089;48.202;11.510;2022-10-31T06:10:48;9.70;99.90
6118;DHT22;3089;48.202;11.510;2022-10-31T06:13:16;9.80;99.90
6118;DHT22;3089;48.202;11.510;2022-10-31T06:15:44;9.70;99.90
6118;DHT22;3089;48.202;11.510;2022-10-31T06:18:12;9.70;99.90
6118;DHT22;3089;48.202;11.510;2022-10-31T06:20:41;9.80;99.90
6118;DHT22;3089;48.202;11.510;2022-10-31T06:23:09;9.80;99.90
6118;DHT22;3089;48.202;11.510;2022-10-31T06:25:37;9.80;99.90
6118;DHT22;3089;48.202;11.510;2022-10-31T06:28:05;9.80;99.90
6118;DHT22;3089;48.202;11.510;2022-10-31T06:30:33;9.90;99.90
6118;DHT22;3089;48.202;11.510;2022-10-31T06:33:03;9.80;99.90
6118;DHT22;3089;48.202;11.510;2022-10-31T06:35:32;9.80;99.90
6118;DHT22;3089;48.202;11.510;2022-10-31T06:38:01;9.80;99.90
6118;DHT22;3089;48.202;11.510;2022-10-31T06:40:29;9.90;99.90
6118;DHT22;3089;48.202;11.510;2022-10-31T06:42:58;10.10;99.90
6118;DHT22;3089;48.202;11.510;2022-10-31T06:45:26;10.10;99.90
6118;DHT22;3089;48.202;11.510;2022-10-31T06:47:55;10.00;99.90
6118;DHT22;3089;48.202;11.510;2022-10-31T06:50:43;10.00;99.90
6118;DHT22;3089;48.202;11.510;2022-10-31T06:53:12;10.10;99.90
6118;DHT22;3089;48.202;11.510;2022-10-31T06:55:41;10.90;99.90
6118;DHT22;3089;48.202;11.510;2022-10-31T06:58:10;11.10;99.90
6118;DHT22;3089;48.202;11.510;2022-10-31T07:00:38;11.60;99.90
6118;DHT22;3089;48.202;11.510;2022-10-31T07:03:09;11.50;99.90
6118;DHT22;3089;48.202;11.510;2022-10-31T07:05:37;11.20;99.90
6118;DHT22;3089;48.202;11.510;2022-10-31T07:08:06;10.30;99.90
6118;DHT22;3089;48.202;11.510;2022-10-31T07:10:36;10.30;99.90
6118;DHT22;3089;48.202;11.510;2022-10-31T07:13:10;10.10;99.90
6118;DHT22;3089;48.202;11.510;2022-10-31T07:15:40;10.00;99.90
6118;DHT22;3089;48.202;11.510;2022-10-31T07:18:10;10.10;99.90
6118;DHT22;3089;48.202;11.510;2022-10-31T07:20:38;11.00;99.90
6118;DHT22;3089;48.202;11.510;2022-10-31T07:23:05;10.50;99.90
6118;DHT22;3089;48.202;11.510;2022-10-31T07:25:33;10.20;99.90
6118;DHT22;3089;48.202;11.510;2022-10-31T07:28:02;10.10;99.90
6118;DHT22;3089;48.202;11.510;2022-10-31T07:30:30;10.10;99.90
6118;DHT22;3089;48.202;11.510;2022-10-31T07:32:58;10.10;99.90
6118;DHT22;3089;48.202;11.510;2022-10-31T07:35:27;10.10;99.90
6118;DHT22;3089;48.202;11.510;2022-10-31T07:37:55;10.10;99.90
6118;DHT22;3089;48.202;11.510;2022-10-31T07:40:24;10.00;99.90
6118;DHT22;3089;48.202;11.510;2022-10-31T07:42:53;10.90;99.90
6118;DHT22;3089;48.202;11.510;2022-10-31T07:45:22;11.00;99.90
6118;DHT22;3089;48.202;11.510;2022-10-31T07:47:51;10.50;99.90
6118;DHT22;3089;48.202;11.510;2022-10-31T07:50:20;10.50;99.90
6118;DHT22;3089;48.202;11.510;2022-10-31T07:52:57;10.80;99.90
6118;DHT22;3089;48.202;11.510;2022-10-31T07:55:25;10.80;99.90
6118;DHT22;3089;48.202;11.510;2022-10-31T07:57:56;10.90;99.90
6118;DHT22;3089;48.202;11.510;2022-10-31T08:00:26;10.80;99.90
6118;DHT22;3089;48.202;11.510;2022-10-31T08:02:58;11.30;99.90
6118;DHT22;3089;48.202;11.510;2022-10-31T08:05:27;11.80;99.90
6118;DHT22;3089;48.202;11.510;2022-10-31T08:07:56;12.60;99.90
6118;DHT22;3089;48.202;11.510;2022-10-31T08:10:25;13.20;99.90
6118;DHT22;3089;48.202;11.510;2022-10-31T08:12:57;13.90;99.90
6118;DHT22;3089;48.202;11.510;2022-10-31T08:15:27;14.70;99.90
6118;DHT22;3089;48.202;11.510;2022-10-31T08:17:55;14.80;99.90
6118;DHT22;3089;48.202;11.510;2022-10-31T08:20:23;14.10;99.90
6118;DHT22;3089;48.202;11.510;2022-10-31T08:22:55;15.00;99.90
6118;DHT22;3089;48.202;11.510;2022-10-31T08:25:25;15.70;99.90
6118;DHT22;3089;48.202;11.510;2022-10-31T08:27:57;15.50;99.90
6118;DHT22;3089;48.202;11.510;2022-10-31T08:30:28;14.20;99.90
6118;DHT22;3089;48.202;11.510;2022-10-31T08:33:00;14.10;99.90
6118;DHT22;3089;48.202;11.510;2022-10-31T08:35:29;14.40;99.90
6118;DHT22;3089;48.202;11.510;2022-10-31T08:37:57;13.90;99.90
6118;DHT22;3089;48.202;11.510;2022-10-31T08:40:27;13.80;99.90
6118;DHT22;3089;48.202;11.510;2022-10-31T08:42:56;14.30;99.90
6118;DHT22;3089;48.202;11.510;2022-10-31T08:45:24;13.60;99.90
6118;DHT22;3089;48.202;11.510;2022-10-31T08:47:56;13.90;99.90
6118;DHT22;3089;48.202;11.510;2022-10-31T08:50:25;13.30;99.90
6118;DHT22;3089;48.202;11.510;2022-10-31T08:52:53;13.30;99.90
6118;DHT22;3089;48.202;11.510;2022-10-31T08:55:37;13.20;99.90
6118;DHT22;3089;48.202;11.510;2022-10-31T08:58:06;13.10;99.90
6118;DHT22;3089;48.202;11.510;2022-10-31T09:00:34;13.00;99.90
6118;DHT22;3089;48.202;11.510;2022-10-31T09:03:05;13.00;99.90
6118;DHT22;3089;48.202;11.510;2022-10-31T09:05:33;13.30;99.90
6118;DHT22;3089;48.202;11.510;2022-10-31T09:08:03;13.70;99.90
6118;DHT22;3089;48.202;11.510;2022-10-31T09:10:32;13.80;99.90
6118;DHT22;3089;48.202;11.510;2022-10-31T09:13:02;13.70;99.90
6118;DHT22;3089;48.202;11.510;2022-10-31T09:15:33;14.20;99.90
6118;DHT22;3089;48.202;11.510;2022-10-31T09:18:01;14.30;99.90
6118;DHT22;3089;48.202;11.510;2022-10-31T09:20:32;15.10;99.90
6118;DHT22;3089;48.202;11.510;2022-10-31T09:23:02;15.20;99.90
6118;DHT22;3089;48.202;11.510;2022-10-31T09:25:32;15.00;99.90
6118;DHT22;3089;48.202;11.510;2022-10-31T09:28:01;15.40;99.90
6118;DHT22;3089;48.202;11.510;2022-10-31T09:30:32;15.40;99.90
6118;DHT22;3089;48.202;11.510;2022-10-31T09:33:01;15.40;99.90
6118;DHT22;3089;48.202;11.510;2022-10-31T09:35:31;15.70;99.90
6118;DHT22;3089;48.202;11.510;2022-10-31T09:38:00;15.80;99.90
6118;DHT22;3089;48.202;11.510;2022-10-31T09:40:33;15.50;99.90
6118;DHT22;3089;48.202;11.510;2022-10-31T09:43:10;15.30;99.90
6118;DHT22;3089;48.202;11.510;2022-10-31T09:45:47;15.30;99.90
6118;DHT22;3089;48.202;11.510;2022-10-31T09:48:40;15.20;99.90
6118;DHT22;3089;48.202;11.510;2022-10-31T09:51:17;15.10;99.90
6118;DHT22;3089;48.202;11.510;2022-10-31T09:53:49;15.40;99.90
6118;DHT22;3089;48.202;11.510;2022-10-31T09:56:19;15.20;99.90
6118;DHT22;3089;48.202;11.510;2022-10-31T09:58:51;15.10;99.90
6118;DHT22;3089;48.202;11.510;2022-10-31T10:01:30;15.50;99.90
6118;DHT22;3089;48.202;11.510;2022-10-31T10:04:01;15.80;99.90
6118;DHT22;3089;48.202;11.510;2022-10-31T10:06:34;15.70;99.90
6118;DHT22;3089;48.202;11.510;2022-10-31T10:09:03;15.50;99.90
6118;DHT22;3089;48.202;11.510;2022-10-31T10:11:43;15.50;99.90
6118;DHT22;3089;48.202;11.510;2022-10-31T10:14:26;15.70;99.90
6118;DHT22;3089;48.202;11.510;2022-10-31T10:17:05;16.00;99.90
6118;DHT22;3089;48.202;11.510;2022-10-31T10:20:08;15.80;99.90
6118;DHT22;3089;48.202;11.510;2022-10-31T10:22:44;16.00;99.90
6118;DHT22;3089;48.202;11.510;2022-10-31T10:25:20;15.80;99.90
6118;DHT22;3089;48.202;11.510;2022-10-31T10:27:56;15.90;99.90
6118;DHT22;3089;48.202;11.510;2022-10-31T10:30:33;15.70;99.90
6118;DHT22;3089;48.202;11.510;2022-10-31T10:33:07;15.90;99.90
6118;DHT22;3089;48.202;11.510;2022-10-31T10:35:41;15.90;99.90
6118;DHT22;3089;48.202;11.510;2022-10-31T10:38:15;16.10;99.90
6118;DHT22;3089;48.202;11.510;2022-10-31T10:40:45;16.00;99.90
6118;DHT22;3089;48.202;11.510;2022-10-31T10:43:24;16.10;99.90
6118;DHT22;3089;48.202;11.510;2022-10-31T10:46:03;16.10;99.90
6118;DHT22;3089;48.202;11.510;2022-10-31T10:48:55;16.20;99.90
6118;DHT22;3089;48.202;11.510;2022-10-31T10:51:31;16.40;99.90
6118;DHT22;3089;48.202;11.510;2022-10-31T10:54:45;16.40;99.90
6118;DHT22;3089;48.202;11.510;2022-10-31T10:57:23;16.80;99.90
6118;DHT22;3089;48.202;11.510;2022-10-31T10:59:54;16.60;99.90
6118;DHT22;3089;48.202;11.510;2022-10-31T11:02:24;16.80;99.90
6118;DHT22;3089;48.202;11.510;2022-10-31T11:04:55;16.50;99.90
6118;DHT22;3089;48.202;11.510;2022-10-31T11:07:24;16.60;99.90
6118;DHT22;3089;48.202;11.510;2022-10-31T11:10:04;16.70;99.90
6118;DHT22;3089;48.202;11.510;2022-10-31T11:12:39;16.70;99.90
6118;DHT22;3089;48.202;11.510;2022-10-31T11:15:16;16.70;99.90
6118;DHT22;3089;48.202;11.510;2022-10-31T11:17:48;16.80;99.90
6118;DHT22;3089;48.202;11.510;2022-10-31T11:20:31;16.90;99.90
6118;DHT22;3089;48.202;11.510;2022-10-31T11:23:03;16.90;99.90
6118;DHT22;3089;48.202;11.510;2022-10-31T11:25:33;17.00;99.90
6118;DHT22;3089;48.202;11.510;2022-10-31T11:28:02;16.70;99.90
6118;DHT22;3089;48.202;11.510;2022-10-31T11:30:35;16.80;99.90
6118;DHT22;3089;48.202;11.510;2022-10-31T11:33:16;16.90;99.90
6118;DHT22;3089;48.202;11.510;2022-10-31T11:35:45;17.20;99.90
6118;DHT22;3089;48.202;11.510;2022-10-31T11:38:18;17.10;99.90
6118;DHT22;3089;48.202;11.510;2022-10-31T11:40:56;17.10;99.90
6118;DHT22;3089;48.202;11.510;2022-10-31T11:43:25;17.20;99.90
6118;DHT22;3089;48.202;11.510;2022-10-31T11:45:54;17.20;99.90
6118;DHT22;3089;48.202;11.510;2022-10-31T11:48:23;17.20;99.90
6118;DHT22;3089;48.202;11.510;2022-10-31T11:50:54;17.00;99.90
6118;DHT22;3089;48.202;11.510;2022-10-31T11:53:27;17.10;99.90
6118;DHT22;3089;48.202;11.510;2022-10-31T11:56:05;17.10;99.90
6118;DHT22;3089;48.202;11.510;2022-10-31T11:58:33;17.50;99.90
6118;DHT22;3089;48.202;11.510;2022-10-31T12:01:01;17.40;99.90
6118;DHT22;3089;48.202;11.510;2022-10-31T12:03:41;17.70;99.90
6118;DHT22;3089;48.202;11.510;2022-10-31T12:06:13;17.60;99.90
6118;DHT22;3089;48.202;11.510;2022-10-31T12:08:44;17.70;99.90
6118;DHT22;3089;48.202;11.510;2022-10-31T12:11:27;17.60;99.90
6118;DHT22;3089;48.202;11.510;2022-10-31T12:14:08;17.80;99.90
6118;DHT22;3089;48.202;11.510;2022-10-31T12:16:42;17.40;99.90
6118;DHT22;3089;48.202;11.510;2022-10-31T12:19:17;17.70;99.90
6118;DHT22;3089;48.202;11.510;2022-10-31T12:21:59;17.50;99.90
6118;DHT22;3089;48.202;11.510;2022-10-31T12:24:40;17.30;99.90
6118;DHT22;3089;48.202;11.510;2022-10-31T12:27:22;17.60;99.90
6118;DHT22;3089;48.202;11.510;2022-10-31T12:30:02;17.40;99.90
6118;DHT22;3089;48.202;11.510;2022-10-31T12:32:40;17.70;99.90
6118;DHT22;3089;48.202;11.510;2022-10-31T12:35:25;17.50;99.90
6118;DHT22;3089;48.202;11.510;2022-10-31T12:40:58;17.50;99.90
6118;DHT22;3089;48.202;11.510;2022-10-31T12:43:36;17.40;99.90
6118;DHT22;3089;48.202;11.510;2022-10-31T12:46:13;17.40;99.90
6118;DHT22;3089;48.202;11.510;2022-10-31T12:48:53;17.40;99.90
6118;DHT22;3089;48.202;11.510;2022-10-31T12:51:33;17.30;99.90
6118;DHT22;3089;48.202;11.510;2022-10-31T12:54:28;17.40;99.90
6118;DHT22;3089;48.202;11.510;2022-10-31T12:57:06;17.60;99.90
6118;DHT22;3089;48.202;11.510;2022-10-31T12:59:40;17.50;99.90
6118;DHT22;3089;48.202;11.510;2022-10-31T13:02:14;17.40;99.90
6118;DHT22;3089;48.202;11.510;2022-10-31T13:04:48;17.50;99.90
6118;DHT22;3089;48.202;11.510;2022-10-31T13:07:21;17.50;99.90
6118;DHT22;3089;48.202;11.510;2022-10-31T13:09:54;17.70;99.90
6118;DHT22;3089;48.202;11.510;2022-10-31T13:12:24;17.70;99.90
6118;DHT22;3089;48.202;11.510;2022-10-31T13:15:01;17.70;99.90
6118;DHT22;3089;48.202;11.510;2022-10-31T13:17:34;17.80;99.90
6118;DHT22;3089;48.202;11.510;2022-10-31T13:20:19;17.70;99.90
6118;DHT22;3089;48.202;11.510;2022-10-31T13:22:52;17.80;99.90
6118;DHT22;3089;48.202;11.510;2022-10-31T13:25:23;17.60;99.90
6118;DHT22;3089;48.202;11.510;2022-10-31T13:27:55;17.60;99.90
6118;DHT22;3089;48.202;11.510;2022-10-31T13:30:27;17.40;99.90
6118;DHT22;3089;48.202;11.510;2022-10-31T13:33:01;17.30;99.90
6118;DHT22;3089;48.202;11.510;2022-10-31T13:35:35;17.50;99.90
6118;DHT22;3089;48.202;11.510;2022-10-31T13:38:13;17.30;99.90
6118;DHT22;3089;48.202;11.510;2022-10-31T13:40:47;17.20;99.90
6118;DHT22;3089;48.202;11.510;2022-10-31T13:43:25;17.00;99.90
6118;DHT22;3089;48.202;11.510;2022-10-31T13:45:55;16.90;99.90
6118;DHT22;3089;48.202;11.510;2022-10-31T13:48:35;16.90;99.90
6118;DHT22;3089;48.202;11.510;2022-10-31T13:51:05;16.80;99.90
6118;DHT22;3089;48.202;11.510;2022-10-31T13:53:39;16.80;99.90
6118;DHT22;3089;48.202;11.510;2022-10-31T13:56:15;16.80;99.90
6118;DHT22;3089;48.202;11.510;2022-10-31T13:58:59;16.70;99.90
6118;DHT22;3089;48.202;11.510;2022-10-31T14:01:30;16.70;99.90
6118;DHT22;3089;48.202;11.510;2022-10-31T14:04:02;16.80;99.90
6118;DHT22;3089;48.202;11.510;2022-10-31T14:06:45;16.80;99.90
6118;DHT22;3089;48.202;11.510;2022-10-31T14:09:28;16.90;99.90
6118;DHT22;3089;48.202;11.510;2022-10-31T14:11:58;16.70;99.90
6118;DHT22;3089;48.202;11.510;2022-10-31T14:14:32;16.70;99.90
6118;DHT22;3089;48.202;11.510;2022-10-31T14:17:02;16.70;99.90
6118;DHT22;3089;48.202;11.510;2022-10-31T14:19:30;16.80;99.90
6118;DHT22;3089;48.202;11.510;2022-10-31T14:21:58;16.70;99.90
6118;DHT22;3089;48.202;11.510;2022-10-31T14:24:35;16.90;99.90
6118;DHT22;3089;48.202;11.510;2022-10-31T14:29:47;16.60;99.90
6118;DHT22;3089;48.202;11.510;2022-10-31T14:32:21;16.60;99.90
6118;DHT22;3089;48.202;11.510;2022-10-31T14:34:55;16.80;99.90
6118;DHT22;3089;48.202;11.510;2022-10-31T14:37:32;16.80;99.90
6118;DHT22;3089;48.202;11.510;2022-10-31T14:40:19;16.70;99.90
6118;DHT22;3089;48.202;11.510;2022-10-31T14:42:58;16.50;99.90
6118;DHT22;3089;48.202;11.510;2022-10-31T14:45:36;16.40;99.90
6118;DHT22;3089;48.202;11.510;2022-10-31T14:48:20;16.30;99.90
6118;DHT22;3089;48.202;11.510;2022-10-31T14:50:51;16.30;99.90
6118;DHT22;3089;48.202;11.510;2022-10-31T14:53:23;16.20;99.90
6118;DHT22;3089;48.202;11.510;2022-10-31T14:55:53;16.20;99.90
6118;DHT22;3089;48.202;11.510;2022-10-31T14:58:27;16.10;99.90
6118;DHT22;3089;48.202;11.510;2022-10-31T15:00:58;16.20;99.90
6118;DHT22;3089;48.202;11.510;2022-10-31T15:03:31;16.10;99.90
6118;DHT22;3089;48.202;11.510;2022-10-31T15:06:02;16.00;99.90
6118;DHT22;3089;48.202;11.510;2022-10-31T15:08:35;15.90;99.90
6118;DHT22;3089;48.202;11.510;2022-10-31T15:11:12;16.00;99.90
6118;DHT22;3089;48.202;11.510;2022-10-31T15:13:45;16.00;99.90
6118;DHT22;3089;48.202;11.510;2022-10-31T15:16:15;16.00;99.90
6118;DHT22;3089;48.202;11.510;2022-10-31T15:18:52;16.00;99.90
6118;DHT22;3089;48.202;11.510;2022-10-31T15:21:22;16.00;99.90
6118;DHT22;3089;48.202;11.510;2022-10-31T15:23:52;16.00;99.90
6118;DHT22;3089;48.202;11.510;2022-10-31T15:26:23;15.90;99.90
6118;DHT22;3089;48.202;11.510;2022-10-31T15:28:58;15.80;99.90
6118;DHT22;3089;48.202;11.510;2022-10-31T15:31:27;15.80;99.90
6118;DHT22;3089;48.202;11.510;2022-10-31T15:34:00;15.80;99.90
6118;DHT22;3089;48.202;11.510;2022-10-31T15:36:30;15.80;99.90
6118;DHT22;3089;48.202;11.510;2022-10-31T15:39:04;15.70;99.90
6118;DHT22;3089;48.202;11.510;2022-10-31T15:41:34;15.60;99.90
6118;DHT22;3089;48.202;11.510;2022-10-31T15:44:11;15.50;99.90
6118;DHT22;3089;48.202;11.510;2022-10-31T15:46:40;15.40;99.90
6118;DHT22;3089;48.202;11.510;2022-10-31T15:49:22;15.40;99.90
6118;DHT22;3089;48.202;11.510;2022-10-31T15:51:53;15.40;99.90
6118;DHT22;3089;48.202;11.510;2022-10-31T15:54:21;15.20;99.90
6118;DHT22;3089;48.202;11.510;2022-10-31T15:56:49;15.20;99.90
6118;DHT22;3089;48.202;11.510;2022-10-31T15:59:22;15.10;99.90
6118;DHT22;3089;48.202;11.510;2022-10-31T16:02:01;15.10;99.90
6118;DHT22;3089;48.202;11.510;2022-10-31T16:04:31;15.10;99.90
6118;DHT22;3089;48.202;11.510;2022-10-31T16:07:00;15.00;99.90
6118;DHT22;3089;48.202;11.510;2022-10-31T16:09:29;15.00;99.90
6118;DHT22;3089;48.202;11.510;2022-10-31T16:11:57;15.00;99.90
6118;DHT22;3089;48.202;11.510;2022-10-31T16:14:27;14.90;99.90
6118;DHT22;3089;48.202;11.510;2022-10-31T16:16:57;14.80;99.90
6118;DHT22;3089;48.202;11.510;2022-10-31T16:19:29;14.80;99.90
6118;DHT22;3089;48.202;11.510;2022-10-31T16:22:05;14.80;99.90
6118;DHT22;3089;48.202;11.510;2022-10-31T16:24:45;14.70;99.90